createdAt,value
2023-04-17T00:00:21.865Z,11.51
2023-04-17T00:02:50.785Z,11.60
2023-04-17T00:05:21.311Z,11.57
2023-04-17T00:07:50.273Z,11.51
2023-04-17T00:10:18.987Z,11.46
2023-04-17T00:12:47.633Z,11.57
2023-04-17T00:15:16.404Z,11.45
2023-04-17T00:17:46.689Z,11.37
2023-04-17T00:20:15.348Z,11.29
2023-04-17T00:22:44.103Z,11.32
2023-04-17T00:25:14.457Z,11.15
2023-04-17T00:27:43.923Z,11.22
2023-04-17T00:30:12.904Z,11.25
2023-04-17T00:32:41.671Z,11.13
2023-04-17T00:35:10.859Z,11.16
2023-04-17T00:37:39.624Z,11.06
2023-04-17T00:40:09.320Z,11.00
2023-04-17T00:42:38.006Z,10.94
2023-04-17T00:45:11.400Z,10.81
2023-04-17T00:47:40.885Z,10.83
2023-04-17T00:50:10.785Z,10.80
2023-04-17T00:52:39.583Z,10.78
2023-04-17T00:55:09.402Z,10.73
2023-04-17T00:57:38.590Z,10.75
2023-04-17T01:00:09.654Z,10.74
2023-04-17T01:02:40.652Z,10.66
2023-04-17T01:05:10.340Z,10.68
2023-04-17T01:07:41.476Z,10.65
2023-04-17T01:10:10.847Z,10.65
2023-04-17T01:12:40.524Z,10.69
2023-04-17T01:15:11.635Z,10.72
2023-04-17T01:17:40.342Z,10.72
2023-04-17T01:20:11.652Z,10.80
2023-04-17T01:22:41.755Z,10.73
2023-04-17T01:25:10.684Z,10.70
2023-04-17T01:27:39.519Z,10.68
2023-04-17T01:30:09.693Z,10.68
2023-04-17T01:32:39.938Z,10.65
2023-04-17T01:35:08.837Z,10.66
2023-04-17T01:37:37.600Z,10.73
2023-04-17T01:40:08.319Z,10.68
2023-04-17T01:42:37.092Z,10.63
2023-04-17T01:45:06.875Z,10.53
2023-04-17T01:47:35.632Z,10.60
2023-04-17T01:50:04.449Z,10.56
2023-04-17T01:52:33.230Z,10.52
2023-04-17T01:55:02.758Z,10.51
2023-04-17T01:57:31.556Z,10.50
2023-04-17T02:00:00.394Z,10.54
2023-04-17T02:02:29.127Z,10.57
2023-04-17T02:04:57.904Z,10.52
2023-04-17T02:07:28.351Z,10.50
2023-04-17T02:09:57.003Z,10.51
2023-04-17T02:12:28.227Z,10.44
2023-04-17T02:14:58.688Z,10.39
2023-04-17T02:17:27.551Z,10.37
2023-04-17T02:19:56.616Z,10.34
2023-04-17T02:22:25.654Z,10.31
2023-04-17T02:24:54.335Z,10.25
2023-04-17T02:27:22.999Z,10.24
2023-04-17T02:29:51.639Z,10.25
2023-04-17T02:32:20.231Z,10.30
2023-04-17T02:34:49.002Z,10.28
2023-04-17T02:37:17.712Z,10.23
2023-04-17T02:39:46.382Z,10.24
2023-04-17T02:42:14.991Z,10.31
2023-04-17T02:44:43.740Z,10.26
2023-04-17T02:47:12.416Z,10.19
2023-04-17T02:49:41.960Z,10.20
2023-04-17T02:52:11.091Z,10.07
2023-04-17T02:54:39.806Z,9.95
2023-04-17T02:57:08.434Z,9.96
2023-04-17T02:59:37.141Z,9.98
2023-04-17T03:02:06.149Z,10.00
2023-04-17T03:04:38.953Z,10.01
2023-04-17T03:07:11.263Z,10.02
2023-04-17T03:09:39.512Z,9.98
2023-04-17T03:12:11.154Z,9.94
2023-04-17T03:14:39.925Z,9.96
2023-04-17T03:17:09.613Z,10.03
2023-04-17T03:19:38.501Z,10.02
2023-04-17T03:22:07.585Z,10.05
2023-04-17T03:24:36.459Z,10.08
2023-04-17T03:27:05.543Z,10.10
2023-04-17T03:29:34.336Z,10.21
2023-04-17T03:32:03.371Z,10.17
2023-04-17T03:34:32.935Z,10.22
2023-04-17T03:37:01.637Z,10.20
2023-04-17T03:39:30.423Z,10.22
2023-04-17T03:42:02.184Z,10.29
2023-04-17T03:44:31.108Z,10.34
2023-04-17T03:46:59.978Z,10.36
2023-04-17T03:49:29.898Z,10.35
2023-04-17T03:51:58.595Z,10.36
2023-04-17T03:54:27.504Z,10.33
2023-04-17T03:56:57.123Z,10.30
2023-04-17T03:59:25.976Z,10.29
2023-04-17T04:01:54.664Z,10.26
2023-04-17T04:04:24.006Z,10.07
2023-04-17T04:06:54.613Z,9.98
2023-04-17T04:09:28.095Z,9.94
2023-04-17T04:11:57.766Z,9.95
2023-04-17T04:14:26.529Z,9.91
2023-04-17T04:16:55.308Z,9.97
2023-04-17T04:19:26.663Z,10.04
2023-04-17T04:21:55.587Z,10.02
2023-04-17T04:24:25.724Z,10.05
2023-04-17T04:26:54.574Z,10.07
2023-04-17T04:29:24.902Z,10.12
2023-04-17T04:31:53.821Z,10.21
2023-04-17T04:34:26.270Z,10.21
2023-04-17T04:36:55.010Z,10.21
2023-04-17T04:39:23.888Z,10.26
2023-04-17T04:41:53.231Z,10.22
2023-04-17T04:44:21.988Z,10.28
2023-04-17T04:46:52.320Z,10.41
2023-04-17T04:49:21.087Z,10.43
2023-04-17T04:51:50.123Z,10.60
2023-04-17T04:54:20.727Z,10.48
2023-04-17T04:56:50.837Z,10.40
2023-04-17T04:59:19.594Z,10.45
2023-04-17T05:01:48.476Z,10.59
2023-04-17T05:04:17.366Z,10.84
2023-04-17T05:06:46.326Z,10.93
2023-04-17T05:09:17.246Z,11.10
2023-04-17T05:11:46.251Z,11.04
2023-04-17T05:14:15.104Z,11.37
2023-04-17T05:16:43.970Z,11.48
2023-04-17T05:19:13.120Z,11.53
2023-04-17T05:21:42.067Z,11.68
2023-04-17T05:24:14.050Z,11.51
2023-04-17T05:26:42.828Z,11.57
2023-04-17T05:29:11.840Z,11.67
2023-04-17T05:31:43.107Z,11.69
2023-04-17T05:34:11.951Z,11.66
2023-04-17T05:39:53.080Z,11.78
2023-04-17T05:42:24.121Z,11.72
2023-04-17T05:44:57.874Z,11.68
2023-04-17T05:47:33.514Z,11.71
2023-04-17T05:50:09.594Z,11.81
2023-04-17T05:52:49.197Z,11.78
2023-04-17T05:55:19.748Z,11.78
2023-04-17T05:57:48.697Z,11.98
2023-04-17T06:00:17.910Z,12.14
2023-04-17T06:02:46.717Z,12.13
2023-04-17T06:05:25.391Z,12.20
2023-04-17T06:07:54.372Z,12.27
2023-04-17T06:10:23.288Z,12.39
2023-04-17T06:12:52.378Z,12.34
2023-04-17T06:15:24.508Z,12.52
2023-04-17T06:17:56.478Z,12.68
2023-04-17T06:20:25.115Z,12.59
2023-04-17T06:22:55.344Z,12.31
2023-04-17T06:28:23.473Z,12.61
2023-04-17T06:30:52.615Z,12.85
2023-04-17T06:33:21.665Z,12.79
2023-04-17T06:35:52.574Z,12.50
2023-04-17T06:38:25.743Z,12.63
2023-04-17T06:40:57.678Z,12.93
2023-04-17T06:43:35.635Z,13.11
2023-04-17T06:46:05.978Z,13.14
2023-04-17T06:48:44.023Z,13.06
2023-04-17T06:51:12.968Z,13.12
2023-04-17T06:53:42.048Z,13.38
2023-04-17T06:56:13.398Z,13.53
2023-04-17T06:58:47.039Z,13.44
2023-04-17T07:01:22.260Z,13.71
2023-04-17T07:03:51.308Z,14.11
2023-04-17T07:06:20.248Z,14.04
2023-04-17T07:08:49.067Z,14.58
2023-04-17T07:11:18.047Z,14.66
2023-04-17T07:13:46.939Z,14.12
2023-04-17T07:16:16.427Z,14.24
2023-04-17T07:18:45.597Z,14.13
2023-04-17T07:21:14.354Z,13.85
2023-04-17T07:23:45.686Z,14.38
2023-04-17T07:26:14.688Z,14.80
2023-04-17T07:28:44.636Z,15.13
2023-04-17T07:31:13.495Z,15.09
2023-04-17T07:33:42.272Z,15.53
2023-04-17T07:36:12.168Z,15.79
2023-04-17T07:38:42.404Z,15.57
2023-04-17T07:41:12.654Z,15.14
2023-04-17T07:43:41.336Z,15.11
2023-04-17T07:46:10.096Z,15.22
2023-04-17T07:48:38.942Z,15.49
2023-04-17T07:51:08.565Z,15.60
2023-04-17T07:53:39.285Z,15.38
2023-04-17T07:56:08.052Z,15.39
2023-04-17T07:58:36.861Z,15.18
2023-04-17T08:01:06.115Z,15.51
2023-04-17T08:03:35.134Z,15.47
2023-04-17T08:06:04.314Z,15.18
2023-04-17T08:08:33.420Z,15.00
2023-04-17T08:11:02.287Z,15.41
2023-04-17T08:13:34.227Z,15.70
2023-04-17T08:16:04.740Z,15.16
2023-04-17T08:18:33.723Z,15.32
2023-04-17T08:21:02.476Z,15.59
2023-04-17T08:23:31.471Z,15.72
2023-04-17T08:26:00.157Z,15.90
2023-04-17T08:28:29.155Z,15.78
2023-04-17T08:30:59.670Z,15.71
2023-04-17T08:33:28.549Z,15.49
2023-04-17T08:35:57.437Z,15.44
2023-04-17T08:38:27.541Z,15.30
2023-04-17T08:41:02.008Z,15.27
2023-04-17T08:43:33.038Z,15.48
2023-04-17T08:46:03.748Z,15.38
2023-04-17T08:48:32.716Z,15.45
2023-04-17T08:51:03.540Z,15.99
2023-04-17T08:53:33.096Z,16.68
2023-04-17T08:56:09.473Z,17.20
2023-04-17T08:58:38.601Z,17.27
2023-04-17T09:01:11.910Z,16.91
2023-04-17T09:03:45.219Z,17.02
2023-04-17T09:06:15.531Z,17.06
2023-04-17T09:08:59.322Z,17.27
2023-04-17T09:11:28.903Z,17.25
2023-04-17T09:13:57.802Z,17.47
2023-04-17T09:16:28.328Z,17.36
2023-04-17T09:19:09.420Z,17.36
2023-04-17T09:21:38.380Z,17.17
2023-04-17T09:24:07.669Z,16.14
2023-04-17T09:26:45.387Z,15.88
2023-04-17T09:29:25.009Z,16.20
2023-04-17T09:31:54.173Z,15.60
2023-04-17T09:34:23.077Z,15.58
2023-04-17T09:36:57.301Z,15.70
2023-04-17T09:39:26.364Z,15.36
2023-04-17T09:42:06.439Z,14.80
2023-04-17T09:44:37.094Z,14.70
2023-04-17T09:47:07.999Z,14.65
2023-04-17T09:49:43.975Z,14.69
2023-04-17T09:52:13.398Z,15.13
2023-04-17T09:54:44.594Z,14.95
2023-04-17T09:57:16.582Z,15.36
2023-04-17T09:59:48.425Z,15.37
2023-04-17T10:02:19.138Z,16.02
2023-04-17T10:04:48.718Z,16.21
2023-04-17T10:07:18.712Z,16.46
2023-04-17T10:09:47.968Z,17.05
2023-04-17T10:16:37.560Z,16.55
2023-04-17T10:19:36.784Z,17.16
2023-04-17T10:22:20.513Z,17.34
2023-04-17T10:24:54.888Z,17.97
2023-04-17T10:27:31.470Z,17.81
2023-04-17T10:30:02.426Z,17.43
2023-04-17T10:32:32.735Z,18.33
2023-04-17T10:35:23.070Z,17.70
2023-04-17T10:37:54.821Z,18.05
2023-04-17T10:40:25.984Z,18.12
2023-04-17T10:43:06.350Z,18.33
2023-04-17T10:45:57.813Z,18.42
2023-04-17T10:48:36.726Z,18.74
2023-04-17T10:51:28.054Z,18.43
2023-04-17T10:54:08.696Z,19.49
2023-04-17T10:56:43.083Z,18.57
2023-04-17T10:59:20.806Z,18.29
2023-04-17T11:01:53.085Z,17.97
2023-04-17T11:04:27.754Z,17.66
2023-04-17T11:06:56.587Z,17.60
2023-04-17T11:09:28.251Z,17.54
2023-04-17T11:12:04.176Z,17.58
2023-04-17T11:14:32.919Z,17.78
2023-04-17T11:17:02.891Z,17.80
2023-04-17T11:19:33.845Z,17.81
2023-04-17T11:22:07.105Z,17.54
2023-04-17T11:31:41.224Z,16.61
2023-04-17T11:34:14.427Z,16.07
2023-04-17T11:39:51.563Z,15.96
2023-04-17T11:42:32.894Z,15.94
2023-04-17T11:45:07.009Z,15.95
2023-04-17T11:54:11.791Z,15.68
2023-04-17T11:56:44.260Z,15.47
2023-04-17T11:59:13.278Z,15.79
2023-04-17T12:02:03.193Z,15.87
2023-04-17T12:04:38.169Z,16.20
2023-04-17T12:07:08.647Z,16.35
2023-04-17T12:09:38.185Z,17.04
2023-04-17T12:12:08.559Z,17.41
2023-04-17T12:14:37.522Z,17.40
2023-04-17T12:17:06.414Z,17.86
2023-04-17T12:19:35.175Z,17.84
2023-04-17T12:22:05.928Z,17.95
2023-04-17T12:24:34.574Z,18.08
2023-04-17T12:27:09.741Z,18.28
2023-04-17T12:29:45.092Z,18.36
2023-04-17T12:36:33.360Z,18.08
2023-04-17T12:39:04.979Z,18.26
2023-04-17T12:41:38.055Z,17.62
2023-04-17T12:44:07.258Z,17.52
2023-04-17T12:46:40.456Z,17.41
2023-04-17T12:49:32.822Z,17.01
2023-04-17T12:52:04.879Z,17.13
2023-04-17T12:54:35.463Z,16.92
2023-04-17T12:57:10.194Z,16.81
2023-04-17T12:59:41.751Z,16.49
2023-04-17T13:02:10.940Z,16.29
2023-04-17T13:04:44.361Z,16.16
2023-04-17T13:07:16.265Z,16.29
2023-04-17T13:09:45.429Z,15.81
2023-04-17T13:12:15.571Z,15.82
2023-04-17T13:14:44.291Z,15.98
2023-04-17T13:17:16.384Z,15.96
2023-04-17T13:19:45.982Z,16.10
2023-04-17T13:22:19.512Z,16.05
2023-04-17T13:24:48.262Z,16.12
2023-04-17T13:27:17.022Z,16.48
2023-04-17T13:29:45.987Z,16.31
2023-04-17T13:32:27.115Z,16.10
2023-04-17T13:35:16.715Z,16.24
2023-04-17T13:37:51.721Z,16.74
2023-04-17T13:40:26.492Z,16.74
2023-04-17T14:01:33.475Z,16.50
2023-04-17T14:04:05.841Z,16.33
2023-04-17T14:06:35.192Z,16.95
2023-04-17T14:09:05.440Z,17.05
2023-04-17T14:11:34.348Z,17.56
2023-04-17T14:14:08.862Z,17.60
2023-04-17T14:16:40.117Z,16.83
2023-04-17T14:19:14.766Z,16.66
2023-04-17T14:21:46.784Z,17.05
2023-04-17T14:24:17.200Z,17.22
2023-04-17T14:26:47.730Z,17.01
2023-04-17T14:36:04.458Z,17.46
2023-04-17T14:38:34.592Z,16.84
2023-04-17T14:41:03.391Z,16.81
2023-04-17T14:43:32.544Z,17.12
2023-04-17T14:46:10.282Z,17.31
2023-04-17T14:48:52.234Z,17.08
2023-04-17T14:51:16.977Z,17.23
2023-04-17T14:56:23.235Z,17.12
2023-04-17T14:58:51.956Z,16.75
2023-04-17T15:01:20.847Z,16.60
2023-04-17T15:03:49.888Z,16.58
2023-04-17T15:06:18.948Z,16.38
2023-04-17T15:08:50.475Z,16.35
2023-04-17T15:11:22.194Z,16.45
2023-04-17T15:13:50.862Z,16.28
2023-04-17T15:16:19.650Z,16.39
2023-04-17T15:18:56.764Z,16.30
2023-04-17T15:21:36.557Z,15.72
2023-04-17T15:24:05.908Z,16.11
2023-04-17T15:26:37.583Z,16.03
2023-04-17T15:29:06.155Z,15.79
2023-04-17T15:31:35.109Z,15.63
2023-04-17T15:34:03.976Z,15.57
2023-04-17T15:36:32.987Z,15.53
2023-04-17T15:39:01.882Z,15.59
2023-04-17T15:41:30.665Z,15.51
2023-04-17T15:43:59.540Z,15.56
2023-04-17T15:46:31.890Z,15.32
2023-04-17T15:49:08.405Z,15.21
2023-04-17T15:51:35.825Z,15.11
2023-04-17T15:54:04.670Z,15.08
2023-04-17T15:56:35.221Z,15.14
2023-04-17T15:59:08.100Z,15.11
2023-04-17T16:01:38.175Z,15.07
2023-04-17T16:04:07.394Z,15.08
2023-04-17T16:06:36.477Z,14.95
2023-04-17T16:09:05.684Z,14.84
2023-04-17T16:11:34.452Z,14.70
2023-04-17T16:14:03.301Z,14.75
2023-04-17T16:16:32.280Z,14.73
2023-04-17T16:19:00.983Z,14.66
2023-04-17T16:21:29.701Z,14.83
2023-04-17T16:23:59.934Z,14.84
2023-04-17T16:26:30.191Z,14.83
2023-04-17T16:28:58.962Z,14.79
2023-04-17T16:31:28.387Z,14.76
2023-04-17T16:33:57.127Z,14.62
2023-04-17T16:36:26.232Z,14.52
2023-04-17T16:38:55.246Z,14.63
2023-04-17T16:41:24.115Z,14.64
2023-04-17T16:43:52.868Z,14.53
2023-04-17T16:46:31.742Z,14.53
2023-04-17T16:48:56.438Z,14.43
2023-04-17T16:51:26.518Z,14.38
2023-04-17T16:53:55.507Z,14.25
2023-04-17T16:56:24.228Z,14.26
2023-04-17T16:59:00.411Z,14.23
2023-04-17T17:01:29.826Z,14.17
2023-04-17T17:03:59.152Z,14.12
2023-04-17T17:06:31.229Z,14.08
2023-04-17T17:09:02.737Z,13.88
2023-04-17T17:11:31.786Z,13.79
2023-04-17T17:14:01.806Z,13.74
2023-04-17T17:16:33.191Z,13.71
2023-04-17T17:19:02.219Z,13.62
2023-04-17T17:21:33.362Z,13.35
2023-04-17T17:24:02.154Z,12.95
2023-04-17T17:26:30.992Z,12.99
2023-04-17T17:28:59.803Z,12.89
2023-04-17T17:31:35.487Z,12.81
2023-04-17T17:34:24.601Z,12.64
2023-04-17T17:40:49.058Z,12.82
2023-04-17T18:00:32.809Z,12.56
2023-04-17T18:03:03.955Z,12.42
2023-04-17T18:05:37.622Z,12.43
2023-04-17T18:08:14.063Z,12.33
2023-04-17T18:10:50.653Z,12.36
2023-04-17T18:13:29.270Z,12.25
2023-04-17T18:16:12.955Z,12.27
2023-04-17T18:19:06.011Z,12.25
2023-04-17T18:24:34.903Z,11.95
2023-04-17T18:33:33.146Z,11.93
2023-04-17T18:39:45.866Z,11.69
2023-04-17T18:42:16.781Z,11.85
2023-04-17T18:45:25.061Z,11.95
2023-04-17T18:47:41.799Z,11.91
2023-04-17T18:50:15.151Z,11.99
2023-04-17T18:52:50.247Z,11.99
2023-04-17T18:55:24.724Z,11.90
2023-04-17T18:57:59.201Z,12.07
2023-04-17T19:00:30.880Z,12.17
2023-04-17T19:03:05.519Z,12.14
2023-04-17T19:05:39.235Z,12.15
2023-04-17T19:31:16.291Z,11.93
2023-04-17T19:33:45.442Z,11.94
2023-04-17T19:36:16.087Z,12.05
2023-04-17T19:38:45.369Z,12.09
2023-04-17T19:41:28.498Z,11.98
2023-04-17T19:43:57.380Z,11.72
2023-04-17T19:46:27.440Z,11.63
2023-04-17T19:52:37.925Z,11.50
2023-04-17T19:55:09.485Z,11.66
2023-04-17T19:57:39.344Z,11.74
2023-04-17T20:00:11.378Z,11.85
2023-04-17T20:02:42.381Z,11.79
2023-04-17T20:05:13.736Z,11.67
2023-04-17T20:07:44.169Z,11.66
2023-04-17T20:10:14.626Z,11.62
2023-04-17T20:12:43.629Z,11.55
2023-04-17T20:15:20.901Z,11.57
2023-04-17T20:18:01.758Z,11.57
2023-04-17T20:20:29.039Z,11.60
2023-04-17T20:29:27.611Z,11.65
2023-04-17T20:31:49.691Z,11.64
2023-04-17T20:34:18.949Z,11.65
2023-04-17T20:36:51.485Z,11.57
2023-04-17T20:56:48.963Z,11.50
2023-04-17T20:59:17.884Z,11.10
2023-04-17T21:01:56.055Z,11.04
2023-04-17T21:04:27.206Z,10.95
2023-04-17T21:06:56.877Z,11.15
2023-04-17T21:09:27.634Z,11.23
2023-04-17T21:11:57.869Z,11.24
2023-04-17T21:14:29.579Z,11.23
2023-04-17T21:17:03.900Z,11.16
2023-04-17T21:19:34.232Z,11.11
2023-04-17T21:22:06.209Z,11.16
2023-04-17T21:24:37.426Z,11.17
2023-04-17T21:27:06.378Z,11.16
2023-04-17T21:29:38.743Z,10.98
2023-04-17T21:32:12.263Z,10.98
2023-04-17T21:34:41.509Z,10.95
2023-04-17T21:37:10.269Z,11.20
2023-04-17T21:39:39.043Z,11.28
2023-04-17T21:42:10.099Z,11.13
2023-04-17T21:44:38.897Z,11.10
2023-04-17T21:47:08.395Z,10.99
2023-04-17T21:49:37.235Z,11.14
2023-04-17T21:52:07.402Z,11.06
2023-04-17T21:54:38.937Z,11.10
2023-04-17T21:57:07.765Z,11.08
2023-04-17T21:59:36.519Z,11.17
2023-04-17T22:02:08.436Z,11.14
2023-04-17T22:04:37.331Z,11.11
2023-04-17T22:07:07.709Z,11.06
2023-04-17T22:09:36.594Z,11.18
2023-04-17T22:12:13.457Z,11.27
2023-04-17T22:14:42.126Z,11.33
2023-04-17T22:17:12.530Z,11.34
2023-04-17T22:19:41.222Z,11.27
2023-04-17T22:22:10.129Z,11.34
2023-04-17T22:24:42.087Z,11.24
2023-04-17T22:27:13.242Z,11.20
2023-04-17T22:29:41.905Z,11.13
2023-04-17T22:32:10.681Z,11.22
2023-04-17T22:34:41.887Z,11.18
2023-04-17T22:37:09.667Z,11.15
2023-04-17T22:39:38.245Z,11.29
2023-04-17T22:42:07.347Z,11.41
2023-04-17T22:44:36.675Z,11.23
2023-04-17T22:47:05.603Z,11.09
2023-04-17T22:49:35.875Z,11.01
2023-04-17T22:52:08.047Z,10.84
2023-04-17T22:54:38.840Z,10.85
2023-04-17T22:57:07.566Z,10.95
2023-04-17T22:59:36.281Z,11.05
2023-04-17T23:02:05.169Z,10.96
2023-04-17T23:10:59.450Z,11.11
2023-04-17T23:13:31.660Z,11.14
2023-04-17T23:16:04.724Z,10.98
2023-04-17T23:18:33.499Z,11.00
2023-04-17T23:21:02.341Z,11.16
2023-04-17T23:23:31.208Z,11.38
2023-04-17T23:25:59.911Z,11.50
2023-04-17T23:28:30.329Z,11.41
2023-04-17T23:30:59.588Z,11.46
2023-04-17T23:33:28.433Z,11.47
2023-04-17T23:35:57.115Z,11.53
2023-04-17T23:38:27.576Z,11.62
2023-04-17T23:41:00.676Z,11.62
2023-04-17T23:43:29.592Z,11.53
2023-04-17T23:46:00.053Z,11.53
2023-04-17T23:48:28.920Z,11.55
2023-04-17T23:50:57.760Z,11.39
2023-04-17T23:53:26.752Z,11.43
2023-04-17T23:55:55.575Z,11.38
2023-04-17T23:58:26.038Z,11.46
